sensor_id;sensor_type;location;lat;lon;timestamp;temperature;humidity
22426;DHT22;11380;50.822;15.790;2022-09-27T00:04:59;9.20;99.90
22426;DHT22;11380;50.822;15.790;2022-09-27T00:10:06;9.60;99.90
22426;DHT22;11380;50.822;15.790;2022-09-27T00:15:13;9.40;99.90
22426;DHT22;11380;50.822;15.790;2022-09-27T00:20:20;9.70;99.90
22426;DHT22;11380;50.822;15.790;2022-09-27T00:25:26;9.30;99.90
22426;DHT22;11380;50.822;15.790;2022-09-27T00:30:32;9.20;99.90
22426;DHT22;11380;50.822;15.790;2022-09-27T00:35:38;9.20;99.90
22426;DHT22;11380;50.822;15.790;2022-09-27T00:40:44;9.00;99.90
22426;DHT22;11380;50.822;15.790;2022-09-27T00:45:52;9.10;99.90
22426;DHT22;11380;50.822;15.790;2022-09-27T00:51:00;8.90;99.90
22426;DHT22;11380;50.822;15.790;2022-09-27T00:56:12;8.60;99.90
22426;DHT22;11380;50.822;15.790;2022-09-27T01:01:18;8.60;99.90
22426;DHT22;11380;50.822;15.790;2022-09-27T01:06:23;8.30;99.90
22426;DHT22;11380;50.822;15.790;2022-09-27T01:17:06;8.40;99.90
22426;DHT22;11380;50.822;15.790;2022-09-27T01:22:28;8.50;99.90
22426;DHT22;11380;50.822;15.790;2022-09-27T01:33:11;8.90;99.90
22426;DHT22;11380;50.822;15.790;2022-09-27T01:38:18;9.00;99.90
22426;DHT22;11380;50.822;15.790;2022-09-27T01:43:31;8.90;99.90
22426;DHT22;11380;50.822;15.790;2022-09-27T01:48:42;9.00;99.90
22426;DHT22;11380;50.822;15.790;2022-09-27T01:53:52;9.50;99.90
22426;DHT22;11380;50.822;15.790;2022-09-27T01:59:07;9.70;99.90
22426;DHT22;11380;50.822;15.790;2022-09-27T02:04:14;9.80;99.90
22426;DHT22;11380;50.822;15.790;2022-09-27T02:09:30;9.90;99.90
22426;DHT22;11380;50.822;15.790;2022-09-27T02:14:47;9.80;99.90
22426;DHT22;11380;50.822;15.790;2022-09-27T02:20:00;9.70;99.90
22426;DHT22;11380;50.822;15.790;2022-09-27T02:25:22;9.60;99.90
22426;DHT22;11380;50.822;15.790;2022-09-27T02:30:27;9.80;99.90
22426;DHT22;11380;50.822;15.790;2022-09-27T02:35:34;9.90;99.90
22426;DHT22;11380;50.822;15.790;2022-09-27T02:40:46;9.90;99.90
22426;DHT22;11380;50.822;15.790;2022-09-27T02:46:09;9.70;99.90
22426;DHT22;11380;50.822;15.790;2022-09-27T02:56:51;10.00;99.90
22426;DHT22;11380;50.822;15.790;2022-09-27T03:02:23;9.90;99.90
22426;DHT22;11380;50.822;15.790;2022-09-27T03:07:27;10.00;99.90
22426;DHT22;11380;50.822;15.790;2022-09-27T03:12:33;10.00;99.90
22426;DHT22;11380;50.822;15.790;2022-09-27T03:17:39;10.00;99.90
22426;DHT22;11380;50.822;15.790;2022-09-27T03:22:45;10.00;99.90
22426;DHT22;11380;50.822;15.790;2022-09-27T03:27:50;9.90;99.90
22426;DHT22;11380;50.822;15.790;2022-09-27T03:32:56;9.90;99.90
22426;DHT22;11380;50.822;15.790;2022-09-27T03:38:03;9.90;99.90
22426;DHT22;11380;50.822;15.790;2022-09-27T03:43:08;9.80;99.90
22426;DHT22;11380;50.822;15.790;2022-09-27T03:48:13;9.80;99.90
22426;DHT22;11380;50.822;15.790;2022-09-27T03:53:19;9.70;99.90
22426;DHT22;11380;50.822;15.790;2022-09-27T03:58:24;9.70;99.90
22426;DHT22;11380;50.822;15.790;2022-09-27T04:03:30;9.80;99.90
22426;DHT22;11380;50.822;15.790;2022-09-27T04:08:35;9.70;99.90
22426;DHT22;11380;50.822;15.790;2022-09-27T04:13:42;9.70;99.90
22426;DHT22;11380;50.822;15.790;2022-09-27T04:18:47;9.80;99.90
22426;DHT22;11380;50.822;15.790;2022-09-27T04:23:52;9.90;99.90
22426;DHT22;11380;50.822;15.790;2022-09-27T04:28:57;9.90;99.90
22426;DHT22;11380;50.822;15.790;2022-09-27T04:34:04;10.00;99.90
22426;DHT22;11380;50.822;15.790;2022-09-27T04:39:09;9.90;99.90
22426;DHT22;11380;50.822;15.790;2022-09-27T04:44:15;10.20;99.90
22426;DHT22;11380;50.822;15.790;2022-09-27T04:49:20;10.10;99.90
22426;DHT22;11380;50.822;15.790;2022-09-27T04:54:26;10.00;99.90
22426;DHT22;11380;50.822;15.790;2022-09-27T04:59:32;10.10;99.90
22426;DHT22;11380;50.822;15.790;2022-09-27T05:04:37;10.20;99.90
22426;DHT22;11380;50.822;15.790;2022-09-27T05:09:42;10.20;99.90
22426;DHT22;11380;50.822;15.790;2022-09-27T05:14:48;10.30;99.90
22426;DHT22;11380;50.822;15.790;2022-09-27T05:19:54;10.80;1.00
22426;DHT22;11380;50.822;15.790;2022-09-27T05:24:59;10.70;99.90
22426;DHT22;11380;50.822;15.790;2022-09-27T05:30:05;10.80;99.90
22426;DHT22;11380;50.822;15.790;2022-09-27T05:35:12;10.60;1.00
22426;DHT22;11380;50.822;15.790;2022-09-27T05:40:18;10.50;1.00
22426;DHT22;11380;50.822;15.790;2022-09-27T05:45:27;10.40;1.00
22426;DHT22;11380;50.822;15.790;2022-09-27T05:50:32;10.60;99.90
22426;DHT22;11380;50.822;15.790;2022-09-27T05:55:37;10.60;99.90
22426;DHT22;11380;50.822;15.790;2022-09-27T06:00:43;10.60;99.90
22426;DHT22;11380;50.822;15.790;2022-09-27T06:05:48;10.70;99.90
22426;DHT22;11380;50.822;15.790;2022-09-27T06:11:00;10.70;99.90
22426;DHT22;11380;50.822;15.790;2022-09-27T06:16:04;11.00;1.00
22426;DHT22;11380;50.822;15.790;2022-09-27T06:21:10;11.10;99.90
22426;DHT22;11380;50.822;15.790;2022-09-27T06:26:16;11.10;1.00
22426;DHT22;11380;50.822;15.790;2022-09-27T06:31:23;11.20;1.00
22426;DHT22;11380;50.822;15.790;2022-09-27T06:36:28;11.30;1.00
22426;DHT22;11380;50.822;15.790;2022-09-27T06:41:33;11.20;1.00
22426;DHT22;11380;50.822;15.790;2022-09-27T06:46:39;11.10;1.00
22426;DHT22;11380;50.822;15.790;2022-09-27T06:51:46;11.10;1.00
22426;DHT22;11380;50.822;15.790;2022-09-27T06:56:51;11.20;1.00
22426;DHT22;11380;50.822;15.790;2022-09-27T07:01:57;11.30;1.00
22426;DHT22;11380;50.822;15.790;2022-09-27T07:07:02;11.40;1.00
22426;DHT22;11380;50.822;15.790;2022-09-27T07:12:08;11.60;99.90
22426;DHT22;11380;50.822;15.790;2022-09-27T07:17:16;12.20;1.00
22426;DHT22;11380;50.822;15.790;2022-09-27T07:22:22;12.40;99.90
22426;DHT22;11380;50.822;15.790;2022-09-27T07:27:27;12.30;1.00
22426;DHT22;11380;50.822;15.790;2022-09-27T07:32:32;12.00;1.00
22426;DHT22;11380;50.822;15.790;2022-09-27T07:37:39;11.90;99.90
22426;DHT22;11380;50.822;15.790;2022-09-27T07:42:46;11.90;93.50
22426;DHT22;11380;50.822;15.790;2022-09-27T07:47:51;11.90;16.50
22426;DHT22;11380;50.822;15.790;2022-09-27T07:52:57;11.70;99.90
22426;DHT22;11380;50.822;15.790;2022-09-27T07:58:05;11.70;1.00
22426;DHT22;11380;50.822;15.790;2022-09-27T08:03:13;11.80;99.90
22426;DHT22;11380;50.822;15.790;2022-09-27T08:08:19;11.80;1.00
22426;DHT22;11380;50.822;15.790;2022-09-27T08:13:24;11.70;1.00
22426;DHT22;11380;50.822;15.790;2022-09-27T08:18:30;11.60;1.00
22426;DHT22;11380;50.822;15.790;2022-09-27T08:23:35;11.60;99.90
22426;DHT22;11380;50.822;15.790;2022-09-27T08:28:40;11.70;99.90
22426;DHT22;11380;50.822;15.790;2022-09-27T08:33:49;11.70;99.90
22426;DHT22;11380;50.822;15.790;2022-09-27T08:38:55;11.70;99.90
22426;DHT22;11380;50.822;15.790;2022-09-27T08:49:58;11.80;99.90
22426;DHT22;11380;50.822;15.790;2022-09-27T08:55:09;11.80;16.90
22426;DHT22;11380;50.822;15.790;2022-09-27T09:00:13;11.90;1.00
22426;DHT22;11380;50.822;15.790;2022-09-27T09:05:24;11.90;1.00
22426;DHT22;11380;50.822;15.790;2022-09-27T09:10:48;12.00;1.00
22426;DHT22;11380;50.822;15.790;2022-09-27T09:16:40;11.90;1.00
22426;DHT22;11380;50.822;15.790;2022-09-27T09:21:58;12.00;1.00
22426;DHT22;11380;50.822;15.790;2022-09-27T09:27:23;12.10;1.00
22426;DHT22;11380;50.822;15.790;2022-09-27T09:32:49;12.20;1.00
22426;DHT22;11380;50.822;15.790;2022-09-27T09:37:52;12.10;1.00
22426;DHT22;11380;50.822;15.790;2022-09-27T09:43:00;12.40;1.00
22426;DHT22;11380;50.822;15.790;2022-09-27T09:48:09;12.30;99.90
22426;DHT22;11380;50.822;15.790;2022-09-27T09:53:19;12.40;99.90
22426;DHT22;11380;50.822;15.790;2022-09-27T10:03:48;12.50;99.90
22426;DHT22;11380;50.822;15.790;2022-09-27T10:08:53;12.30;99.90
22426;DHT22;11380;50.822;15.790;2022-09-27T10:13:59;12.40;1.00
22426;DHT22;11380;50.822;15.790;2022-09-27T10:19:06;12.50;99.90
22426;DHT22;11380;50.822;15.790;2022-09-27T10:24:15;12.80;1.00
22426;DHT22;11380;50.822;15.790;2022-09-27T10:29:35;12.70;1.00
22426;DHT22;11380;50.822;15.790;2022-09-27T10:34:33;13.20;1.00
22426;DHT22;11380;50.822;15.790;2022-09-27T10:39:40;13.80;1.00
22426;DHT22;11380;50.822;15.790;2022-09-27T10:44:46;13.50;99.90
22426;DHT22;11380;50.822;15.790;2022-09-27T10:50:01;13.20;82.70
22426;DHT22;11380;50.822;15.790;2022-09-27T10:55:07;13.20;99.90
22426;DHT22;11380;50.822;15.790;2022-09-27T11:00:42;13.20;99.90
22426;DHT22;11380;50.822;15.790;2022-09-27T11:05:37;12.80;1.00
22426;DHT22;11380;50.822;15.790;2022-09-27T11:10:44;12.60;1.00
22426;DHT22;11380;50.822;15.790;2022-09-27T11:15:58;12.50;1.00
22426;DHT22;11380;50.822;15.790;2022-09-27T11:26:36;12.40;9.80
22426;DHT22;11380;50.822;15.790;2022-09-27T11:31:42;12.50;1.00
22426;DHT22;11380;50.822;15.790;2022-09-27T11:37:07;12.80;89.80
22426;DHT22;11380;50.822;15.790;2022-09-27T11:53:21;12.80;1.00
22426;DHT22;11380;50.822;15.790;2022-09-27T11:58:36;12.80;1.00
22426;DHT22;11380;50.822;15.790;2022-09-27T12:03:42;12.80;1.00
22426;DHT22;11380;50.822;15.790;2022-09-27T12:14:21;12.80;1.00
22426;DHT22;11380;50.822;15.790;2022-09-27T12:19:34;12.80;13.10
22426;DHT22;11380;50.822;15.790;2022-09-27T12:24:42;12.60;1.00
22426;DHT22;11380;50.822;15.790;2022-09-27T12:29:49;12.70;99.90
22426;DHT22;11380;50.822;15.790;2022-09-27T12:35:07;12.70;99.90
22426;DHT22;11380;50.822;15.790;2022-09-27T12:45:39;12.90;28.90
22426;DHT22;11380;50.822;15.790;2022-09-27T12:51:10;12.60;1.00
22426;DHT22;11380;50.822;15.790;2022-09-27T13:01:54;12.40;1.00
22426;DHT22;11380;50.822;15.790;2022-09-27T13:07:04;12.60;1.00
22426;DHT22;11380;50.822;15.790;2022-09-27T13:12:20;12.50;1.00
22426;DHT22;11380;50.822;15.790;2022-09-27T13:22:48;12.50;1.00
22426;DHT22;11380;50.822;15.790;2022-09-27T13:27:55;12.40;99.90
22426;DHT22;11380;50.822;15.790;2022-09-27T13:38:21;12.50;1.00
22426;DHT22;11380;50.822;15.790;2022-09-27T13:48:54;12.60;1.00
22426;DHT22;11380;50.822;15.790;2022-09-27T13:54:05;12.70;1.00
22426;DHT22;11380;50.822;15.790;2022-09-27T14:04:46;12.90;99.90
22426;DHT22;11380;50.822;15.790;2022-09-27T14:09:54;12.70;99.90
22426;DHT22;11380;50.822;15.790;2022-09-27T14:15:03;12.00;99.90
22426;DHT22;11380;50.822;15.790;2022-09-27T14:25:45;11.00;99.90
22426;DHT22;11380;50.822;15.790;2022-09-27T14:36:30;10.50;1.00
22426;DHT22;11380;50.822;15.790;2022-09-27T14:41:55;10.20;1.00
22426;DHT22;11380;50.822;15.790;2022-09-27T14:47:09;10.00;1.00
22426;DHT22;11380;50.822;15.790;2022-09-27T14:52:19;9.90;1.00
22426;DHT22;11380;50.822;15.790;2022-09-27T14:57:27;9.70;1.00
22426;DHT22;11380;50.822;15.790;2022-09-27T15:02:35;9.80;1.00
22426;DHT22;11380;50.822;15.790;2022-09-27T15:07:46;9.80;1.00
22426;DHT22;11380;50.822;15.790;2022-09-27T15:12:54;9.90;1.00
22426;DHT22;11380;50.822;15.790;2022-09-27T15:18:22;10.10;1.00
22426;DHT22;11380;50.822;15.790;2022-09-27T15:23:23;10.00;1.00
22426;DHT22;11380;50.822;15.790;2022-09-27T15:28:20;10.10;1.00
22426;DHT22;11380;50.822;15.790;2022-09-27T15:33:28;10.60;1.00
22426;DHT22;11380;50.822;15.790;2022-09-27T15:38:40;11.10;1.00
22426;DHT22;11380;50.822;15.790;2022-09-27T15:43:52;10.70;99.90
22426;DHT22;11380;50.822;15.790;2022-09-27T15:54:23;10.70;99.90
22426;DHT22;11380;50.822;15.790;2022-09-27T15:59:30;10.80;1.00
22426;DHT22;11380;50.822;15.790;2022-09-27T16:04:36;10.60;1.00
22426;DHT22;11380;50.822;15.790;2022-09-27T16:09:42;10.60;1.00
22426;DHT22;11380;50.822;15.790;2022-09-27T16:14:49;10.50;1.00
22426;DHT22;11380;50.822;15.790;2022-09-27T16:19:56;10.20;1.00
22426;DHT22;11380;50.822;15.790;2022-09-27T16:25:02;10.20;1.00
22426;DHT22;11380;50.822;15.790;2022-09-27T16:30:09;10.00;1.00
22426;DHT22;11380;50.822;15.790;2022-09-27T16:35:17;10.00;3.50
22426;DHT22;11380;50.822;15.790;2022-09-27T16:40:23;10.00;25.70
22426;DHT22;11380;50.822;15.790;2022-09-27T16:45:31;10.00;1.00
22426;DHT22;11380;50.822;15.790;2022-09-27T16:50:39;10.00;2.80
22426;DHT22;11380;50.822;15.790;2022-09-27T16:56:05;9.80;19.10
22426;DHT22;11380;50.822;15.790;2022-09-27T17:01:11;9.40;25.40
22426;DHT22;11380;50.822;15.790;2022-09-27T17:06:18;9.50;35.00
22426;DHT22;11380;50.822;15.790;2022-09-27T17:11:24;9.20;1.00
22426;DHT22;11380;50.822;15.790;2022-09-27T17:16:31;9.10;81.00
22426;DHT22;11380;50.822;15.790;2022-09-27T17:21:37;8.90;38.40
22426;DHT22;11380;50.822;15.790;2022-09-27T17:26:43;9.00;56.50
22426;DHT22;11380;50.822;15.790;2022-09-27T17:31:49;9.00;8.00
22426;DHT22;11380;50.822;15.790;2022-09-27T17:36:56;9.10;1.00
22426;DHT22;11380;50.822;15.790;2022-09-27T17:42:03;8.60;78.70
22426;DHT22;11380;50.822;15.790;2022-09-27T17:47:09;8.80;99.90
22426;DHT22;11380;50.822;15.790;2022-09-27T17:52:34;8.70;99.90
22426;DHT22;11380;50.822;15.790;2022-09-27T17:57:39;8.80;99.90
22426;DHT22;11380;50.822;15.790;2022-09-27T18:02:46;8.50;99.90
22426;DHT22;11380;50.822;15.790;2022-09-27T18:07:52;8.80;99.90
22426;DHT22;11380;50.822;15.790;2022-09-27T18:12:57;8.50;99.90
22426;DHT22;11380;50.822;15.790;2022-09-27T18:18:06;8.70;99.90
22426;DHT22;11380;50.822;15.790;2022-09-27T18:23:11;8.60;99.90
22426;DHT22;11380;50.822;15.790;2022-09-27T18:28:15;8.50;99.90
22426;DHT22;11380;50.822;15.790;2022-09-27T18:33:21;8.60;99.90
22426;DHT22;11380;50.822;15.790;2022-09-27T18:38:26;8.60;99.90
22426;DHT22;11380;50.822;15.790;2022-09-27T18:43:32;8.60;99.90
22426;DHT22;11380;50.822;15.790;2022-09-27T18:48:40;8.80;99.90
22426;DHT22;11380;50.822;15.790;2022-09-27T18:53:47;8.80;99.90
22426;DHT22;11380;50.822;15.790;2022-09-27T18:58:54;8.50;99.90
22426;DHT22;11380;50.822;15.790;2022-09-27T19:04:01;8.70;99.90
22426;DHT22;11380;50.822;15.790;2022-09-27T19:09:10;8.70;99.90
22426;DHT22;11380;50.822;15.790;2022-09-27T19:14:19;8.40;99.90
22426;DHT22;11380;50.822;15.790;2022-09-27T19:19:25;8.30;99.90
22426;DHT22;11380;50.822;15.790;2022-09-27T19:24:30;8.20;99.90
22426;DHT22;11380;50.822;15.790;2022-09-27T19:29:36;8.10;99.90
22426;DHT22;11380;50.822;15.790;2022-09-27T19:34:41;8.30;99.90
22426;DHT22;11380;50.822;15.790;2022-09-27T19:39:46;8.20;99.90
22426;DHT22;11380;50.822;15.790;2022-09-27T19:44:55;7.90;99.90
22426;DHT22;11380;50.822;15.790;2022-09-27T19:50:03;7.90;99.90
22426;DHT22;11380;50.822;15.790;2022-09-27T19:55:09;7.80;99.90
22426;DHT22;11380;50.822;15.790;2022-09-27T20:00:15;7.70;99.90
22426;DHT22;11380;50.822;15.790;2022-09-27T20:05:23;7.70;99.90
22426;DHT22;11380;50.822;15.790;2022-09-27T20:10:29;7.80;99.90
22426;DHT22;11380;50.822;15.790;2022-09-27T20:15:36;7.90;99.90
22426;DHT22;11380;50.822;15.790;2022-09-27T20:20:41;8.00;99.90
22426;DHT22;11380;50.822;15.790;2022-09-27T20:25:47;7.90;99.90
22426;DHT22;11380;50.822;15.790;2022-09-27T20:31:00;7.90;99.90
22426;DHT22;11380;50.822;15.790;2022-09-27T20:36:07;8.00;99.90
22426;DHT22;11380;50.822;15.790;2022-09-27T20:41:13;8.00;99.90
22426;DHT22;11380;50.822;15.790;2022-09-27T20:46:23;8.00;99.90
22426;DHT22;11380;50.822;15.790;2022-09-27T20:51:30;8.00;99.90
22426;DHT22;11380;50.822;15.790;2022-09-27T20:56:46;8.10;99.90
22426;DHT22;11380;50.822;15.790;2022-09-27T21:01:50;8.20;99.90
22426;DHT22;11380;50.822;15.790;2022-09-27T21:06:56;8.20;99.90
22426;DHT22;11380;50.822;15.790;2022-09-27T21:12:01;8.10;99.90
22426;DHT22;11380;50.822;15.790;2022-09-27T21:17:07;8.10;99.90
22426;DHT22;11380;50.822;15.790;2022-09-27T21:22:12;8.10;99.90
22426;DHT22;11380;50.822;15.790;2022-09-27T21:27:19;7.90;99.90
22426;DHT22;11380;50.822;15.790;2022-09-27T21:32:24;7.90;99.90
22426;DHT22;11380;50.822;15.790;2022-09-27T21:37:30;7.90;99.90
22426;DHT22;11380;50.822;15.790;2022-09-27T21:42:36;7.60;99.90
22426;DHT22;11380;50.822;15.790;2022-09-27T21:47:41;7.70;99.90
22426;DHT22;11380;50.822;15.790;2022-09-27T21:52:47;7.70;99.90
22426;DHT22;11380;50.822;15.790;2022-09-27T21:57:52;7.80;99.90
22426;DHT22;11380;50.822;15.790;2022-09-27T22:02:57;7.90;99.90
22426;DHT22;11380;50.822;15.790;2022-09-27T22:08:03;8.10;99.90
22426;DHT22;11380;50.822;15.790;2022-09-27T22:13:10;8.00;99.90
22426;DHT22;11380;50.822;15.790;2022-09-27T22:18:16;8.20;99.90
22426;DHT22;11380;50.822;15.790;2022-09-27T22:23:22;8.20;99.90
22426;DHT22;11380;50.822;15.790;2022-09-27T22:28:27;8.30;99.90
22426;DHT22;11380;50.822;15.790;2022-09-27T22:33:33;8.20;99.90
22426;DHT22;11380;50.822;15.790;2022-09-27T22:38:38;8.30;99.90
22426;DHT22;11380;50.822;15.790;2022-09-27T22:43:43;8.30;99.90
22426;DHT22;11380;50.822;15.790;2022-09-27T22:48:49;8.30;99.90
22426;DHT22;11380;50.822;15.790;2022-09-27T22:53:54;8.30;99.90
22426;DHT22;11380;50.822;15.790;2022-09-27T22:58:59;8.20;99.90
22426;DHT22;11380;50.822;15.790;2022-09-27T23:04:05;8.20;99.90
22426;DHT22;11380;50.822;15.790;2022-09-27T23:09:11;8.10;99.90
22426;DHT22;11380;50.822;15.790;2022-09-27T23:14:17;8.20;99.90
22426;DHT22;11380;50.822;15.790;2022-09-27T23:19:23;8.20;99.90
22426;DHT22;11380;50.822;15.790;2022-09-27T23:24:30;8.30;99.90
22426;DHT22;11380;50.822;15.790;2022-09-27T23:29:35;8.30;99.90
22426;DHT22;11380;50.822;15.790;2022-09-27T23:34:40;7.90;99.90
22426;DHT22;11380;50.822;15.790;2022-09-27T23:39:46;7.90;99.90
22426;DHT22;11380;50.822;15.790;2022-09-27T23:44:52;7.80;99.90
22426;DHT22;11380;50.822;15.790;2022-09-27T23:49:59;7.90;99.90
22426;DHT22;11380;50.822;15.790;2022-09-27T23:55:04;7.90;99.90
